N521RA KSYR-KSYR
Flight info
| Callsign | N521RA |
|---|---|
| Flight time | 0h 13m |
| Altitude | VFR |
| Route | PATTERN |
| Aircraft | C172/L-DOV/C |
Departure
| Time | 2026-04-26 18:42 |
|---|---|
| Airport | Syracuse Hancock International Airport (KSYR) |
Arrival
| Time | 2026-04-26 18:56 |
|---|---|
| Airport | Syracuse Hancock International Airport (KSYR) |
| Time | Latitude | Longitude | Altitude | Speed | Heading |
|---|---|---|---|---|---|
| 2026-04-26 18:25 | 43.11095 | -76.12650 | 423 ft | 0 kts | 356° |
| 2026-04-26 18:38 | 43.11098 | -76.12649 | 428 ft | 5 kts | 29° |
| 2026-04-26 18:39 | 43.11088 | -76.12623 | 418 ft | 5 kts | 138° |
| 2026-04-26 18:39 | 43.11052 | -76.12561 | 429 ft | 8 kts | 98° |
| 2026-04-26 18:39 | 43.11054 | -76.12420 | 426 ft | 21 kts | 90° |
| 2026-04-26 18:39 | 43.11053 | -76.12232 | 423 ft | 19 kts | 111° |
| 2026-04-26 18:40 | 43.10972 | -76.12185 | 423 ft | 16 kts | 237° |
| 2026-04-26 18:40 | 43.10951 | -76.12445 | 428 ft | 26 kts | 266° |
| 2026-04-26 18:40 | 43.10937 | -76.12610 | 432 ft | 12 kts | 262° |
| 2026-04-26 18:40 | 43.10911 | -76.12633 | 432 ft | 0 kts | 176° |
| 2026-04-26 18:41 | 43.10853 | -76.12592 | 430 ft | 32 kts | 133° |
| 2026-04-26 18:41 | 43.10837 | -76.12069 | 423 ft | 77 kts | 85° |
| 2026-04-26 18:41 | 43.10875 | -76.11271 | 569 ft | 85 kts | 93° |
| 2026-04-26 18:42 | 43.10887 | -76.10435 | 755 ft | 90 kts | 88° |
| 2026-04-26 18:42 | 43.10958 | -76.09557 | 913 ft | 99 kts | 81° |
| 2026-04-26 18:42 | 43.11082 | -76.08554 | 994 ft | 108 kts | 73° |
| 2026-04-26 18:42 | 43.11637 | -76.08220 | 1091 ft | 96 kts | 352° |
| 2026-04-26 18:43 | 43.12173 | -76.08619 | 1172 ft | 93 kts | 298° |
| 2026-04-26 18:43 | 43.12276 | -76.09445 | 1367 ft | 82 kts | 276° |
| 2026-04-26 18:43 | 43.12286 | -76.10207 | 1535 ft | 81 kts | 276° |
| 2026-04-26 18:43 | 43.12305 | -76.11034 | 1652 ft | 87 kts | 276° |
| 2026-04-26 18:44 | 43.12286 | -76.11896 | 1748 ft | 89 kts | 274° |
| 2026-04-26 18:44 | 43.12227 | -76.12737 | 1918 ft | 87 kts | 270° |
| 2026-04-26 18:44 | 43.12162 | -76.13572 | 2156 ft | 89 kts | 268° |
| 2026-04-26 18:44 | 43.12057 | -76.14446 | 2395 ft | 94 kts | 268° |
| 2026-04-26 18:45 | 43.11967 | -76.15349 | 2575 ft | 97 kts | 265° |
| 2026-04-26 18:45 | 43.11735 | -76.16269 | 2497 ft | 111 kts | 238° |
| 2026-04-26 18:45 | 43.11068 | -76.16714 | 2219 ft | 111 kts | 184° |
| 2026-04-26 18:45 | 43.10568 | -76.16078 | 1886 ft | 104 kts | 82° |
| 2026-04-26 18:46 | 43.10695 | -76.15057 | 1391 ft | 117 kts | 75° |
| 2026-04-26 18:46 | 43.10772 | -76.13898 | 822 ft | 125 kts | 88° |
| 2026-04-26 18:46 | 43.10816 | -76.12775 | 525 ft | 102 kts | 86° |
| 2026-04-26 18:46 | 43.10841 | -76.11943 | 421 ft | 73 kts | 88° |
| 2026-04-26 18:47 | 43.10875 | -76.11286 | 572 ft | 64 kts | 88° |
| 2026-04-26 18:47 | 43.10904 | -76.10604 | 634 ft | 78 kts | 90° |
| 2026-04-26 18:47 | 43.10921 | -76.09861 | 797 ft | 81 kts | 87° |
| 2026-04-26 18:47 | 43.10958 | -76.09128 | 1011 ft | 78 kts | 84° |
| 2026-04-26 18:48 | 43.11013 | -76.08355 | 1191 ft | 80 kts | 79° |
| 2026-04-26 18:48 | 43.11102 | -76.07607 | 1379 ft | 82 kts | 45° |
| 2026-04-26 18:48 | 43.11646 | -76.07472 | 1524 ft | 82 kts | 360° |
| 2026-04-26 18:48 | 43.12221 | -76.07501 | 1718 ft | 91 kts | 353° |
| 2026-04-26 18:49 | 43.12753 | -76.07927 | 1832 ft | 96 kts | 302° |
| 2026-04-26 18:49 | 43.12789 | -76.08855 | 1943 ft | 97 kts | 272° |
| 2026-04-26 18:49 | 43.12709 | -76.09753 | 2136 ft | 93 kts | 264° |
| 2026-04-26 18:49 | 43.12591 | -76.10635 | 2221 ft | 96 kts | 268° |
| 2026-04-26 18:50 | 43.12498 | -76.11600 | 2257 ft | 110 kts | 265° |
| 2026-04-26 18:50 | 43.12375 | -76.12599 | 2313 ft | 101 kts | 271° |
| 2026-04-26 18:50 | 43.12356 | -76.13513 | 2085 ft | 94 kts | 277° |
| 2026-04-26 18:50 | 43.12279 | -76.14445 | 1685 ft | 107 kts | 244° |
| 2026-04-26 18:51 | 43.11610 | -76.14683 | 1389 ft | 102 kts | 162° |
| 2026-04-26 18:51 | 43.10973 | -76.14341 | 1134 ft | 100 kts | 156° |
| 2026-04-26 18:51 | 43.10786 | -76.13562 | 739 ft | 102 kts | 88° |
| 2026-04-26 18:51 | 43.10814 | -76.12630 | 488 ft | 96 kts | 88° |
| 2026-04-26 18:52 | 43.10842 | -76.11805 | 438 ft | 73 kts | 89° |
| 2026-04-26 18:52 | 43.10879 | -76.11149 | 599 ft | 69 kts | 90° |
| 2026-04-26 18:52 | 43.10898 | -76.10485 | 762 ft | 71 kts | 85° |
| 2026-04-26 18:52 | 43.10941 | -76.09752 | 882 ft | 79 kts | 87° |
| 2026-04-26 18:53 | 43.10978 | -76.08982 | 1046 ft | 84 kts | 71° |
| 2026-04-26 18:53 | 43.11493 | -76.08797 | 1095 ft | 95 kts | 345° |
| 2026-04-26 18:53 | 43.12100 | -76.09095 | 1300 ft | 87 kts | 332° |
| 2026-04-26 18:53 | 43.12233 | -76.09929 | 1381 ft | 101 kts | 268° |
| 2026-04-26 18:54 | 43.12128 | -76.10882 | 1585 ft | 101 kts | 267° |
| 2026-04-26 18:54 | 43.12018 | -76.11838 | 1743 ft | 107 kts | 263° |
| 2026-04-26 18:54 | 43.11875 | -76.12791 | 1626 ft | 99 kts | 260° |
| 2026-04-26 18:54 | 43.11722 | -76.13701 | 1334 ft | 97 kts | 257° |
| 2026-04-26 18:55 | 43.11244 | -76.14345 | 998 ft | 103 kts | 195° |
| 2026-04-26 18:55 | 43.10689 | -76.13963 | 735 ft | 100 kts | 95° |
| 2026-04-26 18:55 | 43.10807 | -76.13057 | 512 ft | 92 kts | 90° |
| 2026-04-26 18:55 | 43.10831 | -76.12260 | 425 ft | 71 kts | 84° |
| 2026-04-26 18:56 | 43.10850 | -76.11884 | 421 ft | 25 kts | 69° |
| 2026-04-26 18:56 | 43.10915 | -76.11817 | 417 ft | 0 kts | 356° |
| 2026-04-26 18:56 | 43.10923 | -76.11818 | 419 ft | 8 kts | 4° |
| 2026-04-26 18:57 | 43.10970 | -76.11890 | 418 ft | 14 kts | 265° |
| 2026-04-26 18:57 | 43.10968 | -76.11935 | 419 ft | 15 kts | 267° |
| 2026-04-26 18:57 | 43.11025 | -76.12173 | 423 ft | 23 kts | 349° |
| 2026-04-26 18:57 | 43.11051 | -76.12388 | 426 ft | 26 kts | 265° |
| 2026-04-26 18:58 | 43.11052 | -76.12604 | 429 ft | 19 kts | 271° |
| 2026-04-26 18:58 | 43.11053 | -76.12674 | 429 ft | 0 kts | 267° |